KANB/ANB METAR and TAF weather

Enter ICAO airport designator
Station Type Date Time Source
KANB METAR 2019/08/25 13:12 UTC NOAA

KANB 251312Z AUTO 09008KT 10SM OVC009 22/19 A3007 RMK AO2 CIG 007V013 T02170194


Station Type Date Time Source
KANB Decoded METAR 2019/08/25 13:12 UTC NOAA

Station name not available
Aug 25, 2019 - 09:12 AM EDT / 2019.08.25 1312 UTC
Wind: from the E (090 degrees) at 9 MPH (8 KT):0
Visibility: 10 mile(s):0
Sky conditions: overcast
Temperature: 71.1 F (21.7 C)
Dew Point: 66.9 F (19.4 C)
Relative Humidity: 86%
Pressure (altimeter): 30.07 in. Hg (1018 hPa)
ob: KANB 251312Z AUTO 09008KT 10SM OVC009 22/19 A3007 RMK AO2 CIG 007V013 T02170194
cycle: 13

Station Type Date Time Source
KANB TAF 2019/08/25 13:06 UTC NOAA

TAF
AMD KANB 251304Z 2513/2612 06007KT P6SM SHRA OVC010
FM251700 08008KT P6SM VCSH BKN030
FM252100 10007KT P6SM VCTS OVC030CB
FM260100 11005KT P6SM VCSH OVC030
FM260400 12005KT P6SM OVC030

Example: see airport list